createdAt,value
2022-10-17T00:03:53.532Z,29.00
2022-10-17T00:08:57.066Z,32.63
2022-10-17T00:14:00.583Z,32.25
2022-10-17T00:19:07.818Z,27.83
2022-10-17T00:24:11.316Z,29.90
2022-10-17T00:29:14.772Z,28.95
2022-10-17T00:34:19.711Z,30.05
2022-10-17T00:39:23.162Z,29.48
2022-10-17T00:45:09.326Z,25.35
2022-10-17T00:50:15.418Z,28.15
2022-10-17T00:55:25.346Z,29.17
2022-10-17T01:00:28.956Z,27.20
2022-10-17T01:05:34.420Z,27.88
2022-10-17T01:10:53.800Z,23.83
2022-10-17T01:16:09.978Z,22.77
2022-10-17T01:21:38.958Z,23.67
2022-10-17T01:27:06.201Z,25.27
2022-10-17T01:32:17.394Z,23.65
2022-10-17T01:37:29.751Z,22.05
2022-10-17T01:42:41.371Z,22.17
2022-10-17T01:47:49.355Z,23.50
2022-10-17T01:53:00.167Z,21.95
2022-10-17T01:58:10.691Z,23.60
2022-10-17T02:03:21.167Z,18.50
2022-10-17T02:08:29.055Z,22.45
2022-10-17T02:13:51.410Z,20.10
2022-10-17T02:19:34.326Z,18.85
2022-10-17T02:24:49.675Z,18.98
2022-10-17T02:30:02.377Z,21.13
2022-10-17T02:35:11.367Z,19.00
2022-10-17T02:40:17.584Z,19.08
2022-10-17T02:45:21.925Z,20.60
2022-10-17T02:50:38.947Z,20.58
2022-10-17T02:55:51.804Z,16.17
2022-10-17T03:00:55.685Z,15.38
2022-10-17T03:06:00.649Z,14.07
2022-10-17T03:11:04.127Z,16.63
2022-10-17T03:16:08.202Z,15.07
2022-10-17T03:21:14.099Z,13.95
2022-10-17T03:26:17.966Z,17.80
2022-10-17T03:31:21.673Z,16.23
2022-10-17T03:36:27.336Z,13.00
2022-10-17T03:41:31.341Z,13.13
2022-10-17T03:46:35.396Z,14.55
2022-10-17T03:51:40.431Z,13.30
2022-10-17T03:56:48.650Z,13.45
2022-10-17T04:01:55.386Z,14.05
2022-10-17T04:07:00.824Z,13.93
2022-10-17T04:12:05.530Z,12.77
2022-10-17T04:17:10.462Z,12.55
2022-10-17T04:22:16.922Z,14.20
2022-10-17T04:27:20.638Z,12.57
2022-10-17T04:32:25.871Z,12.13
2022-10-17T04:37:44.997Z,14.95
2022-10-17T04:42:54.475Z,12.10
2022-10-17T04:48:03.452Z,11.80
2022-10-17T04:53:08.298Z,11.25
2022-10-17T04:58:11.937Z,12.13
2022-10-17T05:03:16.960Z,10.13
2022-10-17T05:08:21.765Z,12.57
2022-10-17T05:13:27.774Z,14.83
2022-10-17T05:18:31.497Z,13.02
2022-10-17T05:23:36.550Z,10.02
2022-10-17T05:28:40.455Z,10.50
2022-10-17T05:33:45.141Z,9.30
2022-10-17T05:38:53.217Z,7.88
2022-10-17T05:43:57.806Z,8.40
2022-10-17T05:49:31.863Z,7.72
2022-10-17T05:54:39.846Z,8.15
2022-10-17T05:59:43.574Z,8.48
2022-10-17T06:04:54.870Z,6.63
2022-10-17T06:10:01.979Z,6.72
2022-10-17T06:15:07.702Z,7.03
2022-10-17T06:20:12.369Z,6.85
2022-10-17T06:25:17.472Z,8.40
2022-10-17T06:30:21.366Z,7.18
2022-10-17T06:35:26.816Z,5.97
2022-10-17T06:40:31.740Z,6.20
2022-10-17T06:45:36.812Z,6.72
2022-10-17T06:50:50.662Z,7.40
2022-10-17T06:56:03.066Z,10.63
2022-10-17T07:01:36.020Z,15.93
2022-10-17T07:06:41.406Z,13.25
2022-10-17T07:11:53.445Z,16.27
2022-10-17T07:16:57.347Z,11.70
2022-10-17T07:22:02.701Z,12.55
2022-10-17T07:27:09.275Z,10.52
2022-10-17T07:32:13.019Z,12.02
2022-10-17T07:37:17.372Z,13.82
2022-10-17T07:42:29.127Z,13.80
2022-10-17T07:47:35.729Z,13.25
2022-10-17T07:52:43.216Z,11.50
2022-10-17T07:57:48.190Z,13.20
2022-10-17T08:02:51.887Z,13.18
2022-10-17T08:07:58.613Z,19.98
2022-10-17T08:13:03.797Z,20.13
2022-10-17T08:18:07.461Z,23.85
2022-10-17T08:23:11.031Z,18.58
2022-10-17T08:28:16.048Z,16.05
2022-10-17T08:33:19.612Z,16.73
2022-10-17T08:38:26.178Z,20.25
2022-10-17T08:43:54.490Z,20.17
2022-10-17T08:49:03.317Z,18.70
2022-10-17T08:54:16.528Z,16.60
2022-10-17T08:59:29.103Z,16.30
2022-10-17T09:05:04.636Z,14.73
2022-10-17T09:10:17.447Z,16.08
2022-10-17T09:15:45.199Z,14.43
2022-10-17T09:20:54.842Z,13.13
2022-10-17T09:26:01.663Z,13.10
2022-10-17T09:31:13.606Z,11.80
2022-10-17T09:36:22.778Z,12.65
2022-10-17T09:41:47.450Z,13.05
2022-10-17T09:47:26.096Z,13.00
2022-10-17T09:52:35.581Z,13.75
2022-10-17T09:57:56.769Z,9.63
2022-10-17T10:03:20.006Z,13.38
2022-10-17T10:08:29.950Z,10.73
2022-10-17T10:13:35.862Z,12.13
2022-10-17T10:18:40.909Z,10.95
2022-10-17T10:23:46.803Z,8.90
2022-10-17T10:28:58.594Z,10.00
2022-10-17T10:34:21.071Z,10.43
2022-10-17T10:39:50.938Z,11.07
2022-10-17T10:45:03.456Z,10.50
2022-10-17T10:50:35.760Z,9.57
2022-10-17T10:55:48.145Z,8.88
2022-10-17T11:00:52.408Z,9.05
2022-10-17T11:06:05.644Z,9.20
2022-10-17T11:11:19.836Z,9.70
2022-10-17T11:20:23.477Z,8.77
2022-10-17T11:25:38.168Z,10.02
2022-10-17T11:30:50.300Z,8.82
2022-10-17T11:36:04.666Z,8.25
2022-10-17T11:41:13.747Z,9.93
2022-10-17T11:46:23.794Z,8.65
2022-10-17T11:57:20.825Z,8.65
2022-10-17T12:02:38.051Z,8.07
2022-10-17T12:07:50.388Z,12.73
2022-10-17T12:12:54.053Z,8.50
2022-10-17T12:18:02.533Z,8.40
2022-10-17T12:23:29.630Z,8.38
2022-10-17T12:28:35.006Z,7.57
2022-10-17T12:33:51.926Z,10.07
2022-10-17T12:39:50.931Z,8.10
2022-10-17T12:44:54.608Z,9.60
2022-10-17T12:49:58.362Z,9.25
2022-10-17T12:55:14.360Z,6.45
2022-10-17T13:00:25.363Z,8.70
2022-10-17T13:05:33.932Z,7.18
2022-10-17T13:10:43.210Z,9.82
2022-10-17T13:15:49.942Z,8.45
2022-10-17T13:21:00.182Z,7.63
2022-10-17T13:26:20.090Z,5.88
2022-10-17T13:31:32.915Z,7.82
2022-10-17T13:36:37.262Z,7.28
2022-10-17T13:41:43.088Z,9.75
2022-10-17T13:46:47.017Z,7.38
2022-10-17T13:51:53.125Z,6.10
2022-10-17T13:56:59.487Z,6.93
2022-10-17T14:02:03.645Z,5.90
2022-10-17T14:07:08.274Z,5.95
2022-10-17T14:12:16.717Z,6.53
2022-10-17T14:17:27.654Z,6.50
2022-10-17T14:22:36.902Z,6.63
2022-10-17T14:28:02.539Z,4.95
2022-10-17T14:33:15.448Z,4.95
2022-10-17T14:38:20.104Z,4.97
2022-10-17T14:43:30.671Z,6.43
2022-10-17T14:48:36.008Z,6.72
2022-10-17T14:53:40.800Z,4.85
2022-10-17T14:58:45.735Z,5.20
2022-10-17T15:03:49.374Z,5.68
2022-10-17T15:08:53.138Z,5.63
2022-10-17T15:13:58.466Z,5.63
2022-10-17T15:19:02.495Z,4.75
2022-10-17T15:24:06.660Z,5.50
2022-10-17T15:29:16.703Z,4.45
2022-10-17T15:34:20.380Z,7.07
2022-10-17T15:39:23.932Z,4.70
2022-10-17T15:44:29.726Z,4.97
2022-10-17T15:49:34.665Z,4.88
2022-10-17T15:54:38.341Z,4.57
2022-10-17T15:59:43.754Z,4.45
2022-10-17T16:04:49.673Z,4.57
2022-10-17T16:09:53.317Z,5.40
2022-10-17T16:14:58.508Z,4.35
2022-10-17T16:20:02.101Z,4.38
2022-10-17T16:25:10.063Z,4.05
2022-10-17T16:30:16.094Z,5.45
2022-10-17T16:35:25.205Z,4.07
2022-10-17T16:40:28.911Z,4.30
2022-10-17T16:45:34.392Z,4.80
2022-10-17T16:50:41.576Z,4.97
2022-10-17T16:55:45.293Z,5.03
2022-10-17T17:00:50.220Z,4.28
2022-10-17T17:05:54.585Z,4.82
2022-10-17T17:10:58.864Z,4.28
2022-10-17T17:16:10.455Z,3.90
2022-10-17T17:21:14.643Z,5.45
2022-10-17T17:26:21.783Z,3.88
2022-10-17T17:31:30.034Z,3.30
2022-10-17T17:36:37.268Z,4.43
2022-10-17T17:41:43.406Z,5.03
2022-10-17T17:46:49.579Z,3.80
2022-10-17T17:51:53.776Z,4.38
2022-10-17T17:56:57.578Z,4.40
2022-10-17T18:02:03.066Z,5.28
2022-10-17T18:07:06.695Z,4.45
2022-10-17T18:12:10.496Z,4.07
2022-10-17T18:17:15.546Z,4.10
2022-10-17T18:22:19.088Z,6.30
2022-10-17T18:27:22.674Z,5.25
2022-10-17T18:32:28.022Z,3.80
2022-10-17T18:37:32.132Z,7.60
2022-10-17T18:42:35.796Z,4.28
2022-10-17T18:47:44.100Z,3.53
2022-10-17T18:52:48.919Z,5.05
2022-10-17T18:57:53.100Z,4.88
2022-10-17T19:02:58.604Z,4.75
2022-10-17T19:08:02.205Z,3.42
2022-10-17T19:13:06.313Z,3.65
2022-10-17T19:18:11.410Z,4.40
2022-10-17T19:23:14.968Z,3.00
2022-10-17T19:28:18.533Z,4.25
2022-10-17T19:33:23.626Z,3.78
2022-10-17T19:38:27.880Z,2.95
2022-10-17T19:43:31.540Z,3.30
2022-10-17T19:48:38.513Z,4.55
2022-10-17T19:53:42.978Z,4.07
2022-10-17T19:58:47.248Z,26.25
2022-10-17T20:03:53.024Z,17.42
2022-10-17T20:08:57.157Z,15.85
2022-10-17T20:14:02.153Z,17.15
2022-10-17T20:19:12.425Z,15.32
2022-10-17T20:24:18.398Z,14.82
2022-10-17T20:29:24.143Z,12.15
2022-10-17T20:34:34.782Z,14.40
2022-10-17T20:39:39.090Z,13.15
2022-10-17T20:44:42.619Z,10.15
2022-10-17T20:49:47.643Z,9.93
2022-10-17T20:54:51.463Z,12.45
2022-10-17T20:59:54.972Z,11.88
2022-10-17T21:05:00.163Z,11.02
2022-10-17T21:10:30.656Z,12.38
2022-10-17T21:15:27.866Z,10.40
2022-10-17T21:20:33.145Z,13.15
2022-10-17T21:25:37.683Z,10.18
2022-10-17T21:30:43.634Z,10.67
2022-10-17T21:35:48.665Z,15.00
2022-10-17T21:40:55.246Z,12.13
2022-10-17T21:46:04.962Z,12.80
2022-10-17T21:51:12.503Z,10.48
2022-10-17T21:56:20.264Z,11.85
2022-10-17T22:01:27.521Z,11.73
2022-10-17T22:06:40.914Z,17.27
2022-10-17T22:11:48.447Z,14.73
2022-10-17T22:16:52.147Z,16.23
2022-10-17T22:21:57.520Z,18.83
2022-10-17T22:27:01.185Z,17.13
2022-10-17T22:32:04.667Z,15.95
2022-10-17T22:37:09.451Z,15.38
2022-10-17T22:42:13.000Z,15.23
2022-10-17T22:47:16.459Z,15.77
2022-10-17T22:52:21.276Z,14.40
2022-10-17T22:57:24.829Z,13.55
2022-10-17T23:02:28.463Z,13.20
2022-10-17T23:07:34.642Z,13.68
2022-10-17T23:12:38.230Z,14.30
2022-10-17T23:17:41.692Z,13.15
2022-10-17T23:22:46.612Z,13.90
2022-10-17T23:27:50.262Z,11.30
2022-10-17T23:32:54.870Z,12.55
2022-10-17T23:37:59.918Z,11.77
2022-10-17T23:43:03.805Z,10.50
2022-10-17T23:48:07.567Z,11.55
2022-10-17T23:53:12.466Z,11.27
2022-10-17T23:58:16.413Z,9.75
